Time;durP1;ratioP1;P1;durP2;ratioP2;P2;SDS_P1;SDS_P2;PMS_P1;PMS_P2;Temp;Humidity;BMP_temperature;BMP_pressure;BME280_temperature;BME280_humidity;BME280_pressure;Samples;Min_cycle;Max_cycle;Signal;HPM_P1;HPM_P2
2020/12/30 00:00:45;;;;;;;;;;;1.30;99.90;;;;;;5069637;28;19920;-76
2020/12/30 00:03:11;;;;;;;;;;;1.30;99.90;;;;;;5069554;28;19909;-76
2020/12/30 00:05:36;;;;;;;;;;;1.30;99.90;;;;;;5070495;28;19917;-76
2020/12/30 00:08:04;;;;;;;;;;;1.30;99.90;;;;;;5069575;28;19983;-76
2020/12/30 00:10:29;;;;;;;;;;;1.30;99.90;;;;;;5069614;28;19915;-76
2020/12/30 00:12:55;;;;;;;;;;;1.30;99.90;;;;;;5069165;28;19912;-76
2020/12/30 00:15:20;;;;;;;;;;;1.30;99.90;;;;;;5075032;28;20332;-76
2020/12/30 00:17:46;;;;;;;;;;;1.30;99.90;;;;;;5070777;28;19909;-76
2020/12/30 00:20:13;;;;;;;;;;;1.30;99.90;;;;;;5069326;28;19951;-76
2020/12/30 00:22:39;;;;;;;;;;;1.30;99.90;;;;;;5070783;28;19908;-76
2020/12/30 00:25:05;;;;;;;;;;;1.30;99.90;;;;;;5071933;28;20000;-76
2020/12/30 00:27:30;;;;;;;;;;;1.40;99.90;;;;;;5068503;28;19909;-76
2020/12/30 00:29:56;;;;;;;;;;;1.30;99.90;;;;;;5074636;28;19920;-76
2020/12/30 00:32:21;;;;;;;;;;;1.30;99.90;;;;;;5072345;28;19990;-76
2020/12/30 00:34:48;;;;;;;;;;;1.30;99.90;;;;;;5072416;28;20061;-76
2020/12/30 00:37:13;;;;;;;;;;;1.30;99.90;;;;;;5074022;28;19908;-76
2020/12/30 00:39:39;;;;;;;;;;;1.30;99.90;;;;;;5069951;28;20414;-76
2020/12/30 00:42:04;;;;;;;;;;;1.30;99.90;;;;;;5072526;28;19909;-76
2020/12/30 00:44:30;;;;;;;;;;;1.30;99.90;;;;;;5074166;28;20002;-76
2020/12/30 00:46:55;;;;;;;;;;;1.40;99.90;;;;;;5073756;28;19908;-75
2020/12/30 00:49:21;;;;;;;;;;;1.30;99.90;;;;;;5074388;28;19962;-76
2020/12/30 00:51:48;;;;;;;;;;;1.40;99.90;;;;;;5071224;28;19924;-75
2020/12/30 00:54:13;;;;;;;;;;;1.40;99.90;;;;;;5073919;28;20288;-76
2020/12/30 00:56:38;;;;;;;;;;;1.40;99.90;;;;;;5071656;28;19913;-75
2020/12/30 00:59:04;;;;;;;;;;;1.40;99.90;;;;;;5074010;28;19912;-75
2020/12/30 01:01:29;;;;;;;;;;;1.40;99.90;;;;;;5065582;28;19920;-76
2020/12/30 01:03:55;;;;;;;;;;;1.50;99.90;;;;;;5074161;28;19923;-75
2020/12/30 01:06:20;;;;;;;;;;;1.50;99.90;;;;;;5073586;28;19932;-76
2020/12/30 01:08:46;;;;;;;;;;;1.50;99.90;;;;;;5073863;28;20003;-76
2020/12/30 01:11:11;;;;;;;;;;;1.50;99.90;;;;;;5072577;28;19913;-76
2020/12/30 01:13:37;;;;;;;;;;;1.40;99.90;;;;;;5073693;28;20428;-76
2020/12/30 01:16:03;;;;;;;;;;;1.40;99.90;;;;;;5073487;28;20365;-75
2020/12/30 01:18:28;;;;;;;;;;;1.40;99.90;;;;;;5073734;28;19908;-76
2020/12/30 01:21:03;;;;;;;;;;;1.40;99.90;;;;;;5073651;28;20354;-76
2020/12/30 01:23:28;;;;;;;;;;;1.40;99.90;;;;;;5070838;28;19944;-76
2020/12/30 01:25:57;;;;;;;;;;;1.40;99.90;;;;;;5076261;28;19916;-76
2020/12/30 01:28:22;;;;;;;;;;;1.40;99.90;;;;;;5073542;28;19908;-76
2020/12/30 01:30:48;;;;;;;;;;;1.40;99.90;;;;;;5073427;28;20387;-76
2020/12/30 01:33:13;;;;;;;;;;;1.30;99.90;;;;;;5073297;28;20451;-76
2020/12/30 01:35:38;;;;;;;;;;;1.30;99.90;;;;;;5073073;28;20373;-75
2020/12/30 01:38:04;;;;;;;;;;;1.30;99.90;;;;;;5072577;28;19908;-76
2020/12/30 01:40:29;;;;;;;;;;;1.30;99.90;;;;;;5073271;28;19908;-76
2020/12/30 01:42:55;;;;;;;;;;;1.30;99.90;;;;;;5073235;28;19915;-76
2020/12/30 01:45:20;;;;;;;;;;;1.30;99.90;;;;;;5073320;28;19930;-76
2020/12/30 01:47:47;;;;;;;;;;;1.30;99.90;;;;;;5072829;28;19909;-76
2020/12/30 01:50:14;;;;;;;;;;;1.30;99.90;;;;;;5073141;28;20034;-76
2020/12/30 01:52:41;;;;;;;;;;;1.30;99.90;;;;;;5072312;28;19916;-75
2020/12/30 01:55:07;;;;;;;;;;;1.30;99.90;;;;;;5077309;28;19927;-75
2020/12/30 01:57:34;;;;;;;;;;;1.40;99.90;;;;;;5071334;28;19951;-76
2020/12/30 01:59:59;;;;;;;;;;;1.40;99.90;;;;;;5072934;28;19909;-75
2020/12/30 02:02:28;;;;;;;;;;;1.40;99.90;;;;;;5071717;28;20373;-75
2020/12/30 02:04:55;;;;;;;;;;;1.40;99.90;;;;;;5072818;28;19978;-76
2020/12/30 02:07:24;;;;;;;;;;;1.50;99.90;;;;;;5072415;28;19908;-76
2020/12/30 02:09:51;;;;;;;;;;;1.50;99.90;;;;;;5071240;28;20109;-76
2020/12/30 02:12:16;;;;;;;;;;;1.50;99.90;;;;;;5072586;28;20289;-76
2020/12/30 02:14:42;;;;;;;;;;;1.50;99.90;;;;;;5072582;28;19909;-76
2020/12/30 02:17:11;;;;;;;;;;;1.50;99.90;;;;;;5072157;28;20016;-76
2020/12/30 02:19:36;;;;;;;;;;;1.60;99.90;;;;;;5072458;28;20378;-76
2020/12/30 02:22:03;;;;;;;;;;;1.60;99.90;;;;;;5069219;28;19913;-76
2020/12/30 02:24:29;;;;;;;;;;;1.60;99.90;;;;;;5072002;28;19908;-76
2020/12/30 02:26:55;;;;;;;;;;;1.60;99.90;;;;;;5072144;28;19912;-76
2020/12/30 02:29:20;;;;;;;;;;;1.60;99.90;;;;;;5072198;28;19920;-76
2020/12/30 02:31:46;;;;;;;;;;;1.70;99.90;;;;;;5072142;28;19917;-76
2020/12/30 02:34:11;;;;;;;;;;;1.70;99.90;;;;;;5072104;28;20108;-76
2020/12/30 02:36:37;;;;;;;;;;;1.70;99.90;;;;;;5070756;28;20376;-76
2020/12/30 02:39:03;;;;;;;;;;;1.60;99.90;;;;;;5072469;28;19999;-76
2020/12/30 02:41:28;;;;;;;;;;;1.60;99.90;;;;;;5070919;28;19909;-76
2020/12/30 02:43:54;;;;;;;;;;;1.60;99.90;;;;;;5065549;28;19909;-75
2020/12/30 02:46:19;;;;;;;;;;;1.60;99.90;;;;;;5070384;28;19912;-76
2020/12/30 02:48:45;;;;;;;;;;;1.60;99.90;;;;;;5070843;28;19909;-76
2020/12/30 02:51:10;;;;;;;;;;;1.60;99.90;;;;;;5070692;28;19987;-76
2020/12/30 02:53:36;;;;;;;;;;;1.60;99.90;;;;;;5071300;28;19913;-76
2020/12/30 02:56:01;;;;;;;;;;;1.50;99.90;;;;;;5071497;28;19909;-76
2020/12/30 02:58:27;;;;;;;;;;;1.60;99.90;;;;;;5071542;28;20364;-76
2020/12/30 03:00:52;;;;;;;;;;;1.60;99.90;;;;;;5072017;28;19915;-75
2020/12/30 03:03:18;;;;;;;;;;;1.50;99.90;;;;;;5069104;28;20323;-75
2020/12/30 03:05:43;;;;;;;;;;;1.50;99.90;;;;;;5071085;28;19908;-76
2020/12/30 03:08:09;;;;;;;;;;;1.50;99.90;;;;;;5070064;28;19909;-76
2020/12/30 03:10:34;;;;;;;;;;;1.60;99.90;;;;;;5071756;28;19915;-76
2020/12/30 03:13:00;;;;;;;;;;;1.60;99.90;;;;;;5071425;28;19912;-76
2020/12/30 03:15:25;;;;;;;;;;;1.50;99.90;;;;;;5071358;28;19908;-76
2020/12/30 03:17:50;;;;;;;;;;;1.50;99.90;;;;;;5071386;28;19920;-76
2020/12/30 03:20:16;;;;;;;;;;;1.50;99.90;;;;;;5071363;28;19909;-76
2020/12/30 03:22:41;;;;;;;;;;;1.40;99.90;;;;;;5071173;28;20280;-76
2020/12/30 03:25:07;;;;;;;;;;;1.40;99.90;;;;;;5070390;28;19927;-76
2020/12/30 03:27:32;;;;;;;;;;;1.30;99.90;;;;;;5070926;28;19915;-76
2020/12/30 03:29:58;;;;;;;;;;;1.30;99.90;;;;;;5071193;28;19927;-76
2020/12/30 03:32:23;;;;;;;;;;;1.30;99.90;;;;;;5071117;28;20262;-76
2020/12/30 03:34:49;;;;;;;;;;;1.20;99.90;;;;;;5072441;28;20167;-76
2020/12/30 03:37:14;;;;;;;;;;;1.20;99.90;;;;;;5070488;28;20010;-76
2020/12/30 03:39:40;;;;;;;;;;;1.20;99.90;;;;;;5071108;28;19915;-76
2020/12/30 03:42:06;;;;;;;;;;;1.20;99.90;;;;;;5071111;28;20273;-76
2020/12/30 03:44:35;;;;;;;;;;;1.20;99.90;;;;;;5064587;28;20369;-76
2020/12/30 03:47:00;;;;;;;;;;;1.20;99.90;;;;;;5064339;28;19912;-75
2020/12/30 03:49:26;;;;;;;;;;;1.20;99.90;;;;;;5070808;28;19908;-76
2020/12/30 03:51:52;;;;;;;;;;;1.30;99.90;;;;;;5070941;28;19912;-76
2020/12/30 03:54:17;;;;;;;;;;;1.30;99.90;;;;;;5071006;28;19913;-76
2020/12/30 03:56:43;;;;;;;;;;;1.30;99.90;;;;;;5073575;28;19916;-75
2020/12/30 03:59:08;;;;;;;;;;;1.30;99.90;;;;;;5071779;28;19962;-76
2020/12/30 04:01:33;;;;;;;;;;;1.20;99.90;;;;;;5074697;28;19961;-76
2020/12/30 04:03:59;;;;;;;;;;;1.20;99.90;;;;;;5075332;28;19908;-76
2020/12/30 04:06:24;;;;;;;;;;;1.20;99.90;;;;;;5074383;28;19908;-75
2020/12/30 04:08:50;;;;;;;;;;;1.10;99.90;;;;;;5074852;28;19909;-76
2020/12/30 04:11:15;;;;;;;;;;;1.10;99.90;;;;;;5074804;28;19909;-76
2020/12/30 04:13:41;;;;;;;;;;;1.10;99.90;;;;;;5073454;28;20011;-76
2020/12/30 04:16:06;;;;;;;;;;;1.10;99.90;;;;;;5073190;28;19912;-76
2020/12/30 04:18:32;;;;;;;;;;;1.10;99.90;;;;;;5074555;28;20377;-76
2020/12/30 04:20:57;;;;;;;;;;;1.20;99.90;;;;;;5074572;28;19909;-76
2020/12/30 04:23:23;;;;;;;;;;;1.20;99.90;;;;;;5074729;28;19918;-76
2020/12/30 04:25:48;;;;;;;;;;;1.20;99.90;;;;;;5074092;28;19908;-76
2020/12/30 04:28:17;;;;;;;;;;;1.20;99.90;;;;;;5074235;28;19954;-76
2020/12/30 04:30:42;;;;;;;;;;;1.30;99.90;;;;;;5074571;28;19969;-76
2020/12/30 04:33:11;;;;;;;;;;;1.30;99.90;;;;;;5074442;28;19916;-76
2020/12/30 04:35:36;;;;;;;;;;;1.30;99.90;;;;;;5074124;28;20308;-76
2020/12/30 04:38:04;;;;;;;;;;;1.30;99.90;;;;;;5074207;28;19915;-76
2020/12/30 04:40:29;;;;;;;;;;;1.30;99.90;;;;;;5074277;28;19908;-76
2020/12/30 04:42:56;;;;;;;;;;;1.30;99.90;;;;;;5074362;28;19909;-76
2020/12/30 04:45:21;;;;;;;;;;;1.30;99.90;;;;;;5074121;28;20369;-76
2020/12/30 04:47:48;;;;;;;;;;;1.30;99.90;;;;;;5072416;28;19916;-76
2020/12/30 04:50:14;;;;;;;;;;;1.30;99.90;;;;;;5072857;28;19909;-76
2020/12/30 04:52:40;;;;;;;;;;;1.30;99.90;;;;;;5074100;28;19920;-76
2020/12/30 04:55:06;;;;;;;;;;;1.30;99.90;;;;;;5069034;28;20238;-76
2020/12/30 04:57:50;;;;;;;;;;;1.40;99.90;;;;;;5073228;28;19919;-76
2020/12/30 05:00:15;;;;;;;;;;;1.40;99.90;;;;;;5073964;28;19916;-76
2020/12/30 05:02:46;;;;;;;;;;;1.40;99.90;;;;;;5074303;28;20085;-76
2020/12/30 05:05:13;;;;;;;;;;;1.40;99.90;;;;;;5073875;28;19912;-76
2020/12/30 05:07:40;;;;;;;;;;;1.30;99.90;;;;;;5073285;28;19958;-76
2020/12/30 05:10:05;;;;;;;;;;;1.30;99.90;;;;;;5073667;28;20432;-76
2020/12/30 05:12:31;;;;;;;;;;;1.30;99.90;;;;;;5072684;28;20007;-76
2020/12/30 05:14:56;;;;;;;;;;;1.30;99.90;;;;;;5073596;28;20308;-76
2020/12/30 05:17:21;;;;;;;;;;;1.30;99.90;;;;;;5073207;28;19915;-76
2020/12/30 05:19:47;;;;;;;;;;;1.20;99.90;;;;;;5072146;28;20430;-76
2020/12/30 05:22:17;;;;;;;;;;;1.20;99.90;;;;;;5072292;28;19923;-76
2020/12/30 05:24:43;;;;;;;;;;;1.20;99.90;;;;;;5072585;28;19908;-76
2020/12/30 05:27:10;;;;;;;;;;;1.20;99.90;;;;;;5073779;28;19915;-76
2020/12/30 05:29:39;;;;;;;;;;;1.10;99.90;;;;;;5077513;28;19908;-76
2020/12/30 05:32:05;;;;;;;;;;;1.10;99.90;;;;;;5073226;28;20388;-76
2020/12/30 05:34:30;;;;;;;;;;;1.10;99.90;;;;;;5073302;28;19995;-76
2020/12/30 05:36:56;;;;;;;;;;;1.00;99.90;;;;;;5073037;28;20404;-76
2020/12/30 05:39:22;;;;;;;;;;;1.00;99.90;;;;;;5073212;28;19958;-76
2020/12/30 05:41:48;;;;;;;;;;;1.00;99.90;;;;;;5071928;28;19927;-76
2020/12/30 05:44:18;;;;;;;;;;;1.00;99.90;;;;;;5071791;28;19908;-76
2020/12/30 05:46:43;;;;;;;;;;;1.00;99.90;;;;;;5072842;28;19940;-76
2020/12/30 05:49:09;;;;;;;;;;;0.90;99.90;;;;;;5073011;28;19962;-76
2020/12/30 05:51:34;;;;;;;;;;;0.90;99.90;;;;;;5072899;28;19908;-76
2020/12/30 05:54:12;;;;;;;;;;;0.80;99.90;;;;;;5069367;28;19948;-76
2020/12/30 05:56:38;;;;;;;;;;;0.80;99.90;;;;;;5072510;28;19909;-75
2020/12/30 05:59:04;;;;;;;;;;;0.80;99.90;;;;;;5072801;28;19909;-76
2020/12/30 06:01:30;;;;;;;;;;;0.80;99.90;;;;;;5071603;28;20014;-75
2020/12/30 06:04:13;;;;;;;;;;;0.80;99.90;;;;;;5066891;28;19951;-76
2020/12/30 06:06:41;;;;;;;;;;;0.80;99.90;;;;;;5069027;28;19915;-76
2020/12/30 06:09:07;;;;;;;;;;;0.80;99.90;;;;;;5072471;28;20285;-76
2020/12/30 06:11:34;;;;;;;;;;;0.90;99.90;;;;;;5070863;28;21277;-76
2020/12/30 06:14:04;;;;;;;;;;;0.90;99.90;;;;;;5077347;28;20003;-76
2020/12/30 06:16:31;;;;;;;;;;;0.90;99.90;;;;;;5072224;28;19909;-76
2020/12/30 06:18:56;;;;;;;;;;;0.90;99.90;;;;;;5072400;28;19909;-76
2020/12/30 06:21:23;;;;;;;;;;;0.90;99.90;;;;;;5072503;28;19919;-76
2020/12/30 06:23:51;;;;;;;;;;;1.00;99.90;;;;;;5071034;28;20025;-75
2020/12/30 06:26:18;;;;;;;;;;;1.00;99.90;;;;;;5072204;28;19919;-76
2020/12/30 06:28:48;;;;;;;;;;;1.00;99.90;;;;;;5072175;28;20463;-76
2020/12/30 06:31:14;;;;;;;;;;;1.00;99.90;;;;;;5070933;28;19920;-76
2020/12/30 06:33:40;;;;;;;;;;;1.00;99.90;;;;;;5072113;28;19916;-76
2020/12/30 06:36:05;;;;;;;;;;;1.00;99.90;;;;;;5071745;28;20365;-76
2020/12/30 06:38:31;;;;;;;;;;;1.10;99.90;;;;;;5071738;28;19962;-76
2020/12/30 06:41:00;;;;;;;;;;;1.10;99.90;;;;;;5071466;28;19909;-76
2020/12/30 06:43:37;;;;;;;;;;;1.10;99.90;;;;;;5071498;28;19908;-76
2020/12/30 06:46:02;;;;;;;;;;;1.10;99.90;;;;;;5071649;28;19909;-76
2020/12/30 06:48:28;;;;;;;;;;;1.10;99.90;;;;;;5071782;28;19954;-76
2020/12/30 06:50:53;;;;;;;;;;;1.20;99.90;;;;;;5071723;28;19908;-76
2020/12/30 06:53:22;;;;;;;;;;;1.10;99.90;;;;;;5071709;28;19916;-76
2020/12/30 06:55:47;;;;;;;;;;;1.10;99.90;;;;;;5071127;28;19924;-76
2020/12/30 06:58:31;;;;;;;;;;;1.10;99.90;;;;;;5071557;28;19912;-76
2020/12/30 07:00:59;;;;;;;;;;;1.10;99.90;;;;;;5071601;28;19947;-75
2020/12/30 07:03:30;;;;;;;;;;;1.00;99.90;;;;;;5071534;28;19923;-76
2020/12/30 07:06:16;;;;;;;;;;;1.00;99.90;;;;;;5071367;28;19966;-76
2020/12/30 07:08:41;;;;;;;;;;;1.00;99.90;;;;;;5066224;28;19958;-76
2020/12/30 07:11:07;;;;;;;;;;;1.00;99.90;;;;;;5070109;28;20323;-76
2020/12/30 07:13:39;;;;;;;;;;;0.90;99.90;;;;;;5070954;28;19920;-76
2020/12/30 07:16:14;;;;;;;;;;;1.00;99.90;;;;;;5070912;28;19909;-76
2020/12/30 07:18:45;;;;;;;;;;;1.00;99.90;;;;;;5071212;28;19908;-76
2020/12/30 07:21:11;;;;;;;;;;;1.00;99.90;;;;;;5071327;28;20114;-76
2020/12/30 07:23:37;;;;;;;;;;;1.00;99.90;;;;;;5071295;28;20506;-76
2020/12/30 07:26:03;;;;;;;;;;;1.00;99.90;;;;;;5070939;28;19909;-76
2020/12/30 07:28:29;;;;;;;;;;;1.00;99.90;;;;;;5071016;28;19975;-76
2020/12/30 07:30:55;;;;;;;;;;;1.00;99.90;;;;;;5071180;28;19920;-76
2020/12/30 07:33:22;;;;;;;;;;;1.10;99.90;;;;;;5071091;28;19981;-76
2020/12/30 07:35:47;;;;;;;;;;;1.10;99.90;;;;;;5070371;28;19935;-76
2020/12/30 07:38:13;;;;;;;;;;;1.10;99.90;;;;;;5069639;28;19909;-76
2020/12/30 07:40:39;;;;;;;;;;;1.10;99.90;;;;;;5070525;28;19926;-76
2020/12/30 07:43:05;;;;;;;;;;;1.10;99.90;;;;;;5076528;28;20285;-76
2020/12/30 07:45:30;;;;;;;;;;;1.10;99.90;;;;;;5070803;28;19908;-76
2020/12/30 07:47:56;;;;;;;;;;;1.10;99.90;;;;;;5070628;28;19909;-76
2020/12/30 07:50:21;;;;;;;;;;;1.10;99.90;;;;;;5062908;28;19912;-76
2020/12/30 07:52:50;;;;;;;;;;;1.10;99.90;;;;;;5052999;28;20312;-76
2020/12/30 07:55:23;;;;;;;;;;;1.10;99.90;;;;;;5060822;28;19912;-76
2020/12/30 07:57:54;;;;;;;;;;;1.10;99.90;;;;;;5059819;28;19908;-76
2020/12/30 08:00:19;;;;;;;;;;;1.10;99.90;;;;;;5069602;28;19908;-76
2020/12/30 08:02:45;;;;;;;;;;;1.10;99.90;;;;;;5070926;28;20003;-76
2020/12/30 08:05:10;;;;;;;;;;;1.10;99.90;;;;;;5068414;28;19928;-76
2020/12/30 08:07:36;;;;;;;;;;;1.10;99.90;;;;;;5053838;28;20380;-76
2020/12/30 08:10:01;;;;;;;;;;;1.00;99.90;;;;;;5064364;28;19909;-76
2020/12/30 08:12:26;;;;;;;;;;;1.00;99.90;;;;;;5069929;28;19912;-76
2020/12/30 08:14:53;;;;;;;;;;;1.10;99.90;;;;;;5069485;28;20357;-75
2020/12/30 08:17:19;;;;;;;;;;;1.10;99.90;;;;;;5070498;28;19909;-75
2020/12/30 08:19:48;;;;;;;;;;;1.10;99.90;;;;;;5070719;28;20431;-76
2020/12/30 08:22:14;;;;;;;;;;;1.20;99.90;;;;;;5070902;28;20137;-76
2020/12/30 08:24:39;;;;;;;;;;;1.20;99.90;;;;;;5070740;28;20369;-75
2020/12/30 08:27:05;;;;;;;;;;;1.30;99.90;;;;;;5070365;28;19917;-75
2020/12/30 08:29:32;;;;;;;;;;;1.40;99.90;;;;;;5070567;28;19970;-76
2020/12/30 08:32:00;;;;;;;;;;;1.50;99.90;;;;;;5070709;28;20349;-76
2020/12/30 08:34:29;;;;;;;;;;;1.60;99.90;;;;;;5069490;28;19931;-76
2020/12/30 08:37:01;;;;;;;;;;;1.70;99.90;;;;;;5070206;28;19978;-75
2020/12/30 08:39:28;;;;;;;;;;;1.70;99.90;;;;;;5070471;28;19955;-75
2020/12/30 08:41:53;;;;;;;;;;;1.90;99.90;;;;;;5070192;28;19963;-75
2020/12/30 08:44:21;;;;;;;;;;;2.00;99.90;;;;;;5070422;28;19952;-75
2020/12/30 08:46:48;;;;;;;;;;;2.10;99.90;;;;;;5072331;28;19913;-75
2020/12/30 08:49:15;;;;;;;;;;;2.10;99.90;;;;;;5069576;28;19913;-75
2020/12/30 08:51:41;;;;;;;;;;;2.30;99.90;;;;;;5065584;28;19953;-75
2020/12/30 08:54:17;;;;;;;;;;;2.30;99.90;;;;;;5067646;28;20046;-76
2020/12/30 08:56:43;;;;;;;;;;;2.40;99.90;;;;;;5066221;28;20368;-75
2020/12/30 08:59:09;;;;;;;;;;;2.60;99.90;;;;;;5066342;28;19995;-75
2020/12/30 09:01:35;;;;;;;;;;;2.70;99.90;;;;;;5073561;28;20624;-75
2020/12/30 09:04:10;;;;;;;;;;;2.80;99.90;;;;;;5074001;28;19908;-76
2020/12/30 09:06:36;;;;;;;;;;;2.90;99.90;;;;;;5067768;28;20528;-75
2020/12/30 09:09:08;;;;;;;;;;;3.10;99.90;;;;;;5073726;28;19909;-76
2020/12/30 09:11:34;;;;;;;;;;;3.20;99.90;;;;;;5073839;28;19908;-76
2020/12/30 09:14:11;;;;;;;;;;;3.20;99.90;;;;;;5072450;28;19916;-76
2020/12/30 09:16:49;;;;;;;;;;;3.30;99.90;;;;;;5073313;28;19915;-76
2020/12/30 09:19:18;;;;;;;;;;;3.30;99.90;;;;;;5073688;28;20018;-76
2020/12/30 09:21:44;;;;;;;;;;;3.30;99.90;;;;;;5073614;28;19912;-76
2020/12/30 09:24:13;;;;;;;;;;;3.30;99.90;;;;;;5073727;28;19908;-75
2020/12/30 09:26:38;;;;;;;;;;;3.30;99.90;;;;;;5072988;28;19942;-76
2020/12/30 09:29:04;;;;;;;;;;;3.30;99.90;;;;;;5072895;28;20277;-76
2020/12/30 09:31:29;;;;;;;;;;;3.30;99.90;;;;;;5071872;28;19916;-76
2020/12/30 09:33:55;;;;;;;;;;;3.30;99.90;;;;;;5072085;28;19917;-76
2020/12/30 09:36:20;;;;;;;;;;;3.30;99.90;;;;;;5071592;28;19909;-76
2020/12/30 09:38:53;;;;;;;;;;;3.40;99.90;;;;;;5071577;28;20416;-76
2020/12/30 09:41:19;;;;;;;;;;;3.40;99.90;;;;;;5072893;28;20310;-76
2020/12/30 09:43:46;;;;;;;;;;;3.50;99.90;;;;;;5073091;28;19995;-76
2020/12/30 09:46:18;;;;;;;;;;;3.60;99.90;;;;;;5072814;28;20010;-76
2020/12/30 09:48:44;;;;;;;;;;;3.70;99.90;;;;;;5073186;28;20205;-76
2020/12/30 09:51:09;;;;;;;;;;;3.80;99.90;;;;;;5073135;28;19908;-76
2020/12/30 09:53:35;;;;;;;;;;;3.90;99.90;;;;;;5071701;28;19916;-76
2020/12/30 09:56:00;;;;;;;;;;;3.90;99.90;;;;;;5072244;28;19912;-76
2020/12/30 09:58:26;;;;;;;;;;;3.90;99.90;;;;;;5072374;28;20525;-76
2020/12/30 10:00:51;;;;;;;;;;;3.90;99.90;;;;;;5072961;28;19908;-76
2020/12/30 10:03:17;;;;;;;;;;;3.90;99.90;;;;;;5073008;28;19991;-76
2020/12/30 10:05:42;;;;;;;;;;;3.90;99.90;;;;;;5072501;28;20300;-76
2020/12/30 10:08:07;;;;;;;;;;;3.90;99.90;;;;;;5077372;28;19953;-76
2020/12/30 10:10:33;;;;;;;;;;;3.90;99.90;;;;;;5072412;28;20284;-76
2020/12/30 10:12:58;;;;;;;;;;;3.90;99.90;;;;;;5072569;28;19916;-76
2020/12/30 10:15:27;;;;;;;;;;;3.80;99.90;;;;;;5072702;28;20261;-76
2020/12/30 10:17:52;;;;;;;;;;;3.80;99.90;;;;;;5072194;28;20357;-76
2020/12/30 10:20:18;;;;;;;;;;;3.80;99.90;;;;;;5072622;28;19915;-76
2020/12/30 10:22:45;;;;;;;;;;;3.80;99.90;;;;;;5072562;28;19908;-76
2020/12/30 10:25:12;;;;;;;;;;;3.80;99.90;;;;;;5072239;28;19944;-76
2020/12/30 10:27:38;;;;;;;;;;;3.90;99.90;;;;;;5071677;28;20289;-76
2020/12/30 10:30:04;;;;;;;;;;;3.90;99.90;;;;;;5065513;28;19912;-77
2020/12/30 10:32:30;;;;;;;;;;;4.00;99.90;;;;;;5070634;28;19912;-77
2020/12/30 10:34:55;;;;;;;;;;;4.00;99.90;;;;;;5072213;28;19915;-76
2020/12/30 10:37:21;;;;;;;;;;;4.10;99.90;;;;;;5070998;28;20372;-76
2020/12/30 10:39:48;;;;;;;;;;;4.20;99.90;;;;;;5070251;28;20053;-76
2020/12/30 10:42:15;;;;;;;;;;;4.30;99.90;;;;;;5070688;28;19994;-76
2020/12/30 10:44:40;;;;;;;;;;;4.40;99.90;;;;;;5072289;28;20361;-76
2020/12/30 10:47:06;;;;;;;;;;;4.50;99.90;;;;;;5068188;28;19923;-76
2020/12/30 10:49:31;;;;;;;;;;;4.50;99.90;;;;;;5072159;28;19954;-76
2020/12/30 10:51:57;;;;;;;;;;;4.50;99.90;;;;;;5073664;28;19913;-76
2020/12/30 10:54:22;;;;;;;;;;;4.60;99.90;;;;;;5072050;28;19915;-76
2020/12/30 10:56:49;;;;;;;;;;;4.70;99.90;;;;;;5071347;28;19954;-76
2020/12/30 10:59:15;;;;;;;;;;;4.80;99.90;;;;;;5069667;28;19962;-76
2020/12/30 11:01:40;;;;;;;;;;;5.10;99.90;;;;;;5069273;28;19912;-76
2020/12/30 11:04:06;;;;;;;;;;;5.20;99.90;;;;;;5069501;28;19956;-76
2020/12/30 11:06:31;;;;;;;;;;;5.30;99.90;;;;;;5063081;28;19909;-76
2020/12/30 11:08:57;;;;;;;;;;;5.40;99.90;;;;;;5071651;28;19967;-76
2020/12/30 11:11:22;;;;;;;;;;;5.40;99.90;;;;;;5068939;28;19913;-76
2020/12/30 11:13:48;;;;;;;;;;;5.40;99.90;;;;;;5069645;28;19913;-76
2020/12/30 11:16:13;;;;;;;;;;;5.40;99.90;;;;;;5069168;28;20024;-76
2020/12/30 11:18:39;;;;;;;;;;;5.30;99.90;;;;;;5071940;28;20254;-76
2020/12/30 11:21:04;;;;;;;;;;;5.20;99.90;;;;;;5070665;28;20007;-76
2020/12/30 11:23:30;;;;;;;;;;;5.20;99.90;;;;;;5072052;28;19915;-76
2020/12/30 11:25:55;;;;;;;;;;;5.20;99.90;;;;;;5070213;28;19909;-76
2020/12/30 11:28:21;;;;;;;;;;;5.10;99.90;;;;;;5071928;28;19991;-76
2020/12/30 11:30:46;;;;;;;;;;;5.00;99.90;;;;;;5071846;28;20365;-76
2020/12/30 11:33:12;;;;;;;;;;;4.90;99.90;;;;;;5071829;28;19920;-76
2020/12/30 11:35:38;;;;;;;;;;;4.80;99.90;;;;;;5069466;28;20292;-76
2020/12/30 11:38:04;;;;;;;;;;;4.70;99.90;;;;;;5066870;28;19922;-76
2020/12/30 11:40:29;;;;;;;;;;;4.70;99.90;;;;;;5077099;28;19908;-76
2020/12/30 11:42:55;;;;;;;;;;;4.60;99.90;;;;;;5071738;28;19915;-76
2020/12/30 11:45:21;;;;;;;;;;;4.60;99.90;;;;;;5071800;28;19909;-76
2020/12/30 11:47:46;;;;;;;;;;;4.50;99.90;;;;;;5071421;28;19939;-76
2020/12/30 11:50:12;;;;;;;;;;;4.40;99.90;;;;;;5070410;28;20317;-76
2020/12/30 11:52:37;;;;;;;;;;;4.30;99.90;;;;;;5070165;28;20361;-76
2020/12/30 11:55:03;;;;;;;;;;;4.30;99.90;;;;;;5070314;28;19913;-76
2020/12/30 11:57:29;;;;;;;;;;;4.30;99.90;;;;;;5071203;28;20289;-76
2020/12/30 11:59:55;;;;;;;;;;;4.20;99.90;;;;;;5071614;28;19915;-76
2020/12/30 12:02:20;;;;;;;;;;;4.20;99.90;;;;;;5071579;28;19909;-76
2020/12/30 12:04:46;;;;;;;;;;;4.20;99.90;;;;;;5071607;28;19914;-76
2020/12/30 12:07:11;;;;;;;;;;;4.20;99.90;;;;;;5067482;28;19915;-77
2020/12/30 12:09:37;;;;;;;;;;;4.20;99.90;;;;;;5069839;28;19912;-76
2020/12/30 12:12:02;;;;;;;;;;;4.20;99.90;;;;;;5071656;28;20441;-77
2020/12/30 12:14:28;;;;;;;;;;;4.20;99.90;;;;;;5070195;28;19920;-77
2020/12/30 12:16:54;;;;;;;;;;;4.30;99.90;;;;;;5068606;28;19913;-76
2020/12/30 12:19:19;;;;;;;;;;;4.30;99.90;;;;;;5070588;28;19909;-77
2020/12/30 12:21:45;;;;;;;;;;;4.40;99.90;;;;;;5072196;28;19980;-76
2020/12/30 12:24:12;;;;;;;;;;;4.40;99.90;;;;;;5075339;28;19938;-76
2020/12/30 12:26:37;;;;;;;;;;;4.50;99.90;;;;;;5074898;28;19912;-76
2020/12/30 12:29:18;;;;;;;;;;;4.50;99.90;;;;;;5075195;28;20330;-77
2020/12/30 12:31:43;;;;;;;;;;;4.60;99.90;;;;;;5073199;28;20301;-76
2020/12/30 12:34:09;;;;;;;;;;;4.70;99.90;;;;;;5074386;28;19912;-76
2020/12/30 12:36:35;;;;;;;;;;;4.70;99.90;;;;;;5063306;28;19939;-76
2020/12/30 12:39:02;;;;;;;;;;;4.60;99.90;;;;;;5066607;28;19913;-76
2020/12/30 12:41:27;;;;;;;;;;;4.70;99.90;;;;;;5068839;28;19913;-76
2020/12/30 12:43:53;;;;;;;;;;;4.80;99.90;;;;;;5074674;28;19934;-76
2020/12/30 12:46:18;;;;;;;;;;;4.90;99.90;;;;;;5074370;28;19909;-76
2020/12/30 12:48:44;;;;;;;;;;;5.00;99.90;;;;;;5074370;28;19981;-76
2020/12/30 12:51:10;;;;;;;;;;;5.00;99.90;;;;;;5074317;28;19909;-76
2020/12/30 12:53:35;;;;;;;;;;;4.90;99.90;;;;;;5073371;28;19927;-76
2020/12/30 12:56:01;;;;;;;;;;;4.90;99.90;;;;;;5074397;28;19912;-76
2020/12/30 12:58:28;;;;;;;;;;;4.80;99.90;;;;;;5074583;28;19909;-76
2020/12/30 13:00:54;;;;;;;;;;;4.80;99.90;;;;;;5074698;28;19909;-77
2020/12/30 13:03:19;;;;;;;;;;;4.70;99.90;;;;;;5074523;28;20057;-76
2020/12/30 13:05:45;;;;;;;;;;;4.70;99.90;;;;;;5074148;28;20424;-76
2020/12/30 13:08:11;;;;;;;;;;;4.60;99.90;;;;;;5074316;28;19935;-76
2020/12/30 13:10:36;;;;;;;;;;;4.60;99.90;;;;;;5074500;28;19931;-77
2020/12/30 13:13:02;;;;;;;;;;;4.60;99.90;;;;;;5072529;28;20365;-77
2020/12/30 13:15:27;;;;;;;;;;;4.60;99.90;;;;;;5073598;28;20345;-77
2020/12/30 13:17:53;;;;;;;;;;;4.60;99.90;;;;;;5072990;28;19909;-77
2020/12/30 13:20:20;;;;;;;;;;;4.60;99.90;;;;;;5073160;28;19908;-77
2020/12/30 13:22:46;;;;;;;;;;;4.60;99.90;;;;;;5071695;28;19923;-77
2020/12/30 13:25:11;;;;;;;;;;;4.50;99.90;;;;;;5072861;28;20440;-77
2020/12/30 13:27:37;;;;;;;;;;;4.50;99.90;;;;;;5072481;28;19927;-77
2020/12/30 13:30:03;;;;;;;;;;;4.50;99.90;;;;;;5072875;28;19962;-77
2020/12/30 13:32:28;;;;;;;;;;;4.50;99.90;;;;;;5073109;28;20410;-77
2020/12/30 13:34:54;;;;;;;;;;;4.50;99.90;;;;;;5074104;28;19908;-77
2020/12/30 13:37:19;;;;;;;;;;;4.50;99.90;;;;;;5072357;28;19909;-77
2020/12/30 13:39:45;;;;;;;;;;;4.50;99.90;;;;;;5074007;28;19999;-77
2020/12/30 13:42:11;;;;;;;;;;;4.40;99.90;;;;;;5073984;28;19909;-77
2020/12/30 13:44:36;;;;;;;;;;;4.40;99.90;;;;;;5072676;28;20000;-77
2020/12/30 13:47:02;;;;;;;;;;;4.40;99.90;;;;;;5073408;28;19960;-77
2020/12/30 13:49:27;;;;;;;;;;;4.50;99.90;;;;;;5075732;28;19916;-77
2020/12/30 13:51:53;;;;;;;;;;;4.40;99.90;;;;;;5072257;28;20325;-77
2020/12/30 13:54:19;;;;;;;;;;;4.40;99.90;;;;;;5073660;28;19908;-77
2020/12/30 13:56:45;;;;;;;;;;;4.30;99.90;;;;;;5073429;28;19915;-77
2020/12/30 13:59:10;;;;;;;;;;;4.30;99.90;;;;;;5072251;28;20372;-77
2020/12/30 14:01:36;;;;;;;;;;;4.20;99.90;;;;;;5073569;28;19908;-77
2020/12/30 14:04:01;;;;;;;;;;;4.20;99.90;;;;;;5073480;28;19923;-77
2020/12/30 14:06:27;;;;;;;;;;;4.20;99.90;;;;;;5072928;28;19912;-77
2020/12/30 14:08:52;;;;;;;;;;;4.10;99.90;;;;;;5073303;28;19915;-77
2020/12/30 14:11:18;;;;;;;;;;;4.10;99.90;;;;;;5072010;28;19909;-77
2020/12/30 14:13:44;;;;;;;;;;;4.00;99.90;;;;;;5073266;28;19919;-77
2020/12/30 14:16:10;;;;;;;;;;;4.00;99.90;;;;;;5052071;28;19932;-77
2020/12/30 14:18:35;;;;;;;;;;;4.00;99.90;;;;;;5065140;28;20345;-77
2020/12/30 14:21:01;;;;;;;;;;;4.00;99.90;;;;;;5071782;28;19916;-77
2020/12/30 14:23:26;;;;;;;;;;;4.00;99.90;;;;;;5073095;28;19909;-77
2020/12/30 14:25:52;;;;;;;;;;;4.00;99.90;;;;;;5071497;28;19958;-77